Time;durP1;ratioP1;P1;durP2;ratioP2;P2;SDS_P1;SDS_P2;PMS_P1;PMS_P2;Temp;Humidity;BMP_temperature;BMP_pressure;BME280_temperature;BME280_humidity;BME280_pressure;Samples;Min_cycle;Max_cycle;Signal;HPM_P1;HPM_P2
2022/03/08 00:01:02;;;;;;;;;;;7.40;99.90;;;;;;5023317;28;20182;-92
2022/03/08 00:03:29;;;;;;;;;;;7.40;99.90;;;;;;5022861;28;19906;-92
2022/03/08 00:05:54;;;;;;;;;;;7.40;99.90;;;;;;5022811;28;20220;-92
2022/03/08 00:08:20;;;;;;;;;;;7.30;99.90;;;;;;5022832;28;19905;-92
2022/03/08 00:10:46;;;;;;;;;;;7.30;99.90;;;;;;5022652;28;19906;-93
2022/03/08 00:13:12;;;;;;;;;;;7.30;99.90;;;;;;5023002;28;20233;-92
2022/03/08 00:15:38;;;;;;;;;;;7.20;99.90;;;;;;5023278;28;19913;-92
2022/03/08 00:18:03;;;;;;;;;;;7.20;99.90;;;;;;5022690;28;19973;-91
2022/03/08 00:20:30;;;;;;;;;;;7.10;99.90;;;;;;5022909;28;19905;-93
2022/03/08 00:22:56;;;;;;;;;;;7.10;99.90;;;;;;5022746;28;20304;-92
2022/03/08 00:25:22;;;;;;;;;;;7.20;99.90;;;;;;5022560;28;19905;-92
2022/03/08 00:27:48;;;;;;;;;;;7.10;99.90;;;;;;5022386;28;20221;-92
2022/03/08 00:30:20;;;;;;;;;;;7.20;99.90;;;;;;5022692;28;20243;-94
2022/03/08 00:32:46;;;;;;;;;;;7.20;99.90;;;;;;5022920;28;19905;-92
2022/03/08 00:35:12;;;;;;;;;;;7.30;99.90;;;;;;5022691;28;19975;-91
2022/03/08 00:37:38;;;;;;;;;;;7.30;99.90;;;;;;5022519;28;19905;-92
2022/03/08 00:40:04;;;;;;;;;;;7.40;99.90;;;;;;5022602;28;19913;-92
2022/03/08 00:42:30;;;;;;;;;;;7.40;99.90;;;;;;5022738;28;19920;-92
2022/03/08 00:44:55;;;;;;;;;;;7.40;99.90;;;;;;5040290;28;19917;-94
2022/03/08 00:47:21;;;;;;;;;;;7.40;99.90;;;;;;5034701;28;19905;-91
2022/03/08 00:49:47;;;;;;;;;;;7.40;99.90;;;;;;5028317;28;19928;-92
2022/03/08 00:52:12;;;;;;;;;;;7.40;99.90;;;;;;5023756;28;19976;-92
2022/03/08 00:54:38;;;;;;;;;;;7.30;99.90;;;;;;5041490;28;20048;-92
2022/03/08 00:57:05;;;;;;;;;;;7.40;99.90;;;;;;5041856;28;19909;-92
2022/03/08 00:59:30;;;;;;;;;;;7.40;99.90;;;;;;5028583;28;19905;-92
2022/03/08 01:01:56;;;;;;;;;;;7.40;99.90;;;;;;5036174;28;19905;-92
2022/03/08 01:04:21;;;;;;;;;;;7.40;99.90;;;;;;5035106;28;20190;-92
2022/03/08 01:06:47;;;;;;;;;;;7.30;99.90;;;;;;5028459;28;19912;-92
2022/03/08 01:09:13;;;;;;;;;;;7.40;99.90;;;;;;5029028;28;20122;-93
2022/03/08 01:11:39;;;;;;;;;;;7.40;99.90;;;;;;5033741;28;19930;-92
2022/03/08 01:14:06;;;;;;;;;;;7.40;99.90;;;;;;5029772;28;19913;-92
2022/03/08 01:16:33;;;;;;;;;;;7.40;99.90;;;;;;5040121;28;19949;-92
2022/03/08 01:18:58;;;;;;;;;;;7.50;99.90;;;;;;5029585;28;19980;-94
2022/03/08 01:21:24;;;;;;;;;;;7.50;99.90;;;;;;5021482;28;19913;-92
2022/03/08 01:23:49;;;;;;;;;;;7.40;99.90;;;;;;5021935;28;20076;-91
2022/03/08 01:26:15;;;;;;;;;;;7.40;99.90;;;;;;5025332;28;20105;-92
2022/03/08 01:28:41;;;;;;;;;;;7.40;99.90;;;;;;5020855;28;19906;-92
2022/03/08 01:31:07;;;;;;;;;;;7.40;99.90;;;;;;5030781;28;19905;-92
2022/03/08 01:33:33;;;;;;;;;;;7.40;99.90;;;;;;5038970;28;19920;-95
2022/03/08 01:35:58;;;;;;;;;;;7.40;99.90;;;;;;5041785;28;19909;-92
2022/03/08 01:38:24;;;;;;;;;;;7.30;99.90;;;;;;5036514;28;19928;-93
2022/03/08 01:40:51;;;;;;;;;;;7.20;99.90;;;;;;5028767;28;19941;-93
2022/03/08 01:43:16;;;;;;;;;;;7.30;99.90;;;;;;5025001;28;19913;-92
2022/03/08 01:45:42;;;;;;;;;;;7.30;99.90;;;;;;5025860;28;19916;-93
2022/03/08 01:48:08;;;;;;;;;;;7.30;99.90;;;;;;5025573;28;19905;-92
2022/03/08 01:50:35;;;;;;;;;;;7.40;99.90;;;;;;5026662;28;19906;-92
2022/03/08 01:53:01;;;;;;;;;;;7.40;99.90;;;;;;5024784;28;19955;-91
2022/03/08 01:55:27;;;;;;;;;;;7.40;99.90;;;;;;5025007;28;19922;-93
2022/03/08 01:57:52;;;;;;;;;;;7.50;99.90;;;;;;5024798;28;19976;-92
2022/03/08 02:00:29;;;;;;;;;;;7.50;99.90;;;;;;5024666;28;20213;-92
2022/03/08 02:02:55;;;;;;;;;;;7.60;99.90;;;;;;5036278;28;19906;-93
2022/03/08 02:05:21;;;;;;;;;;;7.60;99.90;;;;;;5024974;28;19929;-92
2022/03/08 02:07:47;;;;;;;;;;;7.60;99.90;;;;;;5025260;28;19905;-92
2022/03/08 02:10:12;;;;;;;;;;;7.60;99.90;;;;;;5025296;28;19910;-92
2022/03/08 02:12:38;;;;;;;;;;;7.60;99.90;;;;;;5024698;28;19971;-93
2022/03/08 02:15:13;;;;;;;;;;;7.60;99.90;;;;;;5025253;28;20186;-92
2022/03/08 02:17:39;;;;;;;;;;;7.50;99.90;;;;;;5024992;28;20253;-92
2022/03/08 02:20:05;;;;;;;;;;;7.60;99.90;;;;;;5024988;28;19905;-92
2022/03/08 02:22:31;;;;;;;;;;;7.60;99.90;;;;;;5024738;28;19964;-93
2022/03/08 02:24:56;;;;;;;;;;;7.60;99.90;;;;;;5025257;28;19905;-92
2022/03/08 02:27:22;;;;;;;;;;;7.50;99.90;;;;;;5025377;28;19906;-92
2022/03/08 02:29:48;;;;;;;;;;;7.50;99.90;;;;;;5023606;28;19960;-93
2022/03/08 02:32:14;;;;;;;;;;;7.50;99.90;;;;;;5025516;28;20075;-92
2022/03/08 02:34:39;;;;;;;;;;;7.50;99.90;;;;;;5024733;28;20020;-92
2022/03/08 02:37:08;;;;;;;;;;;7.50;99.90;;;;;;5024802;28;19905;-93
2022/03/08 02:39:35;;;;;;;;;;;7.40;99.90;;;;;;5026662;28;19907;-93
2022/03/08 02:42:00;;;;;;;;;;;7.40;99.90;;;;;;5028646;28;19999;-93
2022/03/08 02:44:27;;;;;;;;;;;7.30;99.90;;;;;;5042918;28;19955;-93
2022/03/08 02:46:53;;;;;;;;;;;7.30;99.90;;;;;;5046830;28;19904;-93
2022/03/08 02:49:19;;;;;;;;;;;7.40;99.90;;;;;;5047802;28;20205;-92
2022/03/08 02:51:44;;;;;;;;;;;7.30;99.90;;;;;;5047602;28;20007;-92
2022/03/08 02:54:10;;;;;;;;;;;7.40;99.90;;;;;;5047015;28;19920;-92
2022/03/08 02:56:36;;;;;;;;;;;7.40;99.90;;;;;;5046451;28;19909;-92
2022/03/08 02:59:02;;;;;;;;;;;7.40;99.90;;;;;;5047437;28;19911;-93
2022/03/08 03:01:27;;;;;;;;;;;7.40;99.90;;;;;;5046514;28;20131;-92
2022/03/08 03:03:53;;;;;;;;;;;7.40;99.90;;;;;;5047688;28;19905;-92
2022/03/08 03:06:18;;;;;;;;;;;7.40;99.90;;;;;;5049456;28;19964;-92
2022/03/08 03:08:45;;;;;;;;;;;7.30;99.90;;;;;;5051193;28;19905;-92
2022/03/08 03:11:11;;;;;;;;;;;7.30;99.90;;;;;;5047001;28;19905;-93
2022/03/08 03:13:36;;;;;;;;;;;7.30;99.90;;;;;;5046669;28;19912;-92
2022/03/08 03:16:02;;;;;;;;;;;7.30;99.90;;;;;;5046419;28;19908;-93
2022/03/08 03:18:28;;;;;;;;;;;7.30;99.90;;;;;;5047122;28;19912;-92
2022/03/08 03:20:53;;;;;;;;;;;7.30;99.90;;;;;;5046759;28;19904;-93
2022/03/08 03:23:19;;;;;;;;;;;7.30;99.90;;;;;;5047210;28;19943;-93
2022/03/08 03:25:46;;;;;;;;;;;7.30;99.90;;;;;;5062188;28;19943;-92
2022/03/08 03:28:11;;;;;;;;;;;7.40;99.90;;;;;;5046361;28;19911;-92
2022/03/08 03:30:37;;;;;;;;;;;7.40;99.90;;;;;;5045497;28;19909;-93
2022/03/08 03:33:03;;;;;;;;;;;7.40;99.90;;;;;;5046455;28;19905;-93
2022/03/08 03:35:29;;;;;;;;;;;7.50;99.90;;;;;;5046578;28;19992;-93
2022/03/08 03:37:55;;;;;;;;;;;7.50;99.90;;;;;;5046342;28;19905;-92
2022/03/08 03:40:21;;;;;;;;;;;7.50;99.90;;;;;;5046111;28;19954;-91
2022/03/08 03:42:46;;;;;;;;;;;7.50;99.90;;;;;;5045645;28;19940;-92
2022/03/08 03:45:12;;;;;;;;;;;7.40;99.90;;;;;;5045438;28;20081;-93
2022/03/08 03:47:38;;;;;;;;;;;7.50;99.90;;;;;;5045838;28;19951;-93
2022/03/08 03:50:05;;;;;;;;;;;7.50;99.90;;;;;;5045404;28;19944;-93
2022/03/08 03:52:30;;;;;;;;;;;7.50;99.90;;;;;;5046003;28;20020;-94
2022/03/08 03:54:56;;;;;;;;;;;7.40;99.90;;;;;;5045906;28;20087;-93
2022/03/08 03:57:22;;;;;;;;;;;7.50;99.90;;;;;;5045665;28;20148;-92
2022/03/08 03:59:47;;;;;;;;;;;7.40;99.90;;;;;;5046641;28;19967;-93
2022/03/08 04:02:14;;;;;;;;;;;7.40;99.90;;;;;;5048087;28;19936;-93
2022/03/08 04:04:39;;;;;;;;;;;7.40;99.90;;;;;;5046092;28;19905;-92
2022/03/08 04:07:05;;;;;;;;;;;7.40;99.90;;;;;;5045949;28;20215;-92
2022/03/08 04:09:31;;;;;;;;;;;7.40;99.90;;;;;;5046227;28;19913;-93
2022/03/08 04:11:56;;;;;;;;;;;7.40;99.90;;;;;;5045886;28;19972;-93
2022/03/08 04:14:22;;;;;;;;;;;7.40;99.90;;;;;;5053244;28;19995;-93
2022/03/08 04:16:48;;;;;;;;;;;7.50;99.90;;;;;;5060133;28;19901;-92
2022/03/08 04:19:13;;;;;;;;;;;7.40;99.90;;;;;;5058730;28;19939;-93
2022/03/08 04:21:39;;;;;;;;;;;7.50;99.90;;;;;;5068588;28;19904;-93
2022/03/08 04:24:05;;;;;;;;;;;7.50;99.90;;;;;;5050241;28;19905;-92
2022/03/08 04:26:30;;;;;;;;;;;7.50;99.90;;;;;;5048678;28;19912;-93
2022/03/08 04:28:56;;;;;;;;;;;7.50;99.90;;;;;;5051606;28;19971;-93
2022/03/08 04:31:21;;;;;;;;;;;7.50;99.90;;;;;;5056985;28;19912;-93
2022/03/08 04:33:47;;;;;;;;;;;7.50;99.90;;;;;;5059775;28;19901;-93
2022/03/08 04:36:12;;;;;;;;;;;7.50;99.90;;;;;;5059796;28;19985;-93
2022/03/08 04:38:38;;;;;;;;;;;7.50;99.90;;;;;;5059807;28;19901;-91
2022/03/08 04:41:05;;;;;;;;;;;7.50;99.90;;;;;;5059718;28;19932;-93
2022/03/08 04:43:31;;;;;;;;;;;7.60;99.90;;;;;;5059619;28;19927;-93
2022/03/08 04:45:57;;;;;;;;;;;7.60;99.90;;;;;;5059792;28;19901;-93
2022/03/08 04:48:22;;;;;;;;;;;7.60;99.90;;;;;;5059692;28;19901;-93
2022/03/08 04:50:48;;;;;;;;;;;7.70;99.90;;;;;;5059603;28;19968;-93
2022/03/08 04:53:14;;;;;;;;;;;7.60;99.90;;;;;;5059639;28;19946;-94
2022/03/08 04:55:39;;;;;;;;;;;7.60;99.90;;;;;;5059461;28;19920;-94
2022/03/08 04:58:05;;;;;;;;;;;7.60;99.90;;;;;;5059457;28;19900;-93
2022/03/08 05:00:30;;;;;;;;;;;7.60;99.90;;;;;;5059672;28;19923;-92
2022/03/08 05:02:56;;;;;;;;;;;7.60;99.90;;;;;;5059457;28;19960;-93
2022/03/08 05:05:22;;;;;;;;;;;7.60;99.90;;;;;;5059360;28;19928;-93
2022/03/08 05:07:47;;;;;;;;;;;7.60;99.90;;;;;;5059002;28;19905;-94
2022/03/08 05:10:13;;;;;;;;;;;7.70;99.90;;;;;;5055645;28;20257;-93
2022/03/08 05:12:39;;;;;;;;;;;7.70;99.90;;;;;;5045085;28;20142;-93
2022/03/08 05:15:05;;;;;;;;;;;7.70;99.90;;;;;;5061502;28;19913;-94
2022/03/08 05:17:31;;;;;;;;;;;7.70;99.90;;;;;;5044581;28;19912;-93
2022/03/08 05:19:57;;;;;;;;;;;7.70;99.90;;;;;;5044776;28;20220;-93
2022/03/08 05:22:22;;;;;;;;;;;7.70;99.90;;;;;;5044965;28;20208;-93
2022/03/08 05:24:48;;;;;;;;;;;7.80;99.90;;;;;;5044917;28;19951;-93
2022/03/08 05:27:14;;;;;;;;;;;7.80;99.90;;;;;;5044361;28;19927;-92
2022/03/08 05:29:40;;;;;;;;;;;7.80;99.90;;;;;;5044586;28;20193;-92
2022/03/08 05:32:06;;;;;;;;;;;7.80;99.90;;;;;;5044630;28;19905;-92
2022/03/08 05:34:32;;;;;;;;;;;7.80;99.90;;;;;;5044956;28;19913;-93
2022/03/08 05:36:57;;;;;;;;;;;7.80;99.90;;;;;;5043117;28;19912;-93
2022/03/08 05:39:23;;;;;;;;;;;7.80;99.90;;;;;;5044767;28;19954;-93
2022/03/08 05:41:49;;;;;;;;;;;7.90;99.90;;;;;;5044353;28;19936;-93
2022/03/08 05:44:14;;;;;;;;;;;7.90;99.90;;;;;;5044122;28;19925;-94
2022/03/08 05:46:40;;;;;;;;;;;7.90;99.90;;;;;;5044749;28;19980;-92
2022/03/08 05:49:06;;;;;;;;;;;7.80;99.90;;;;;;5044277;28;20143;-92
2022/03/08 05:51:31;;;;;;;;;;;7.80;99.90;;;;;;5044450;28;19936;-93
2022/03/08 05:53:57;;;;;;;;;;;7.80;99.90;;;;;;5044589;28;19980;-93
2022/03/08 05:56:23;;;;;;;;;;;7.70;99.90;;;;;;5044704;28;20280;-93
2022/03/08 05:58:48;;;;;;;;;;;7.70;99.90;;;;;;5046417;28;19904;-93
2022/03/08 06:01:14;;;;;;;;;;;7.70;99.90;;;;;;5045435;28;20101;-94
2022/03/08 06:03:39;;;;;;;;;;;7.80;99.90;;;;;;5045743;28;19940;-94
2022/03/08 06:06:05;;;;;;;;;;;7.80;99.90;;;;;;5045910;28;19958;-94
2022/03/08 06:08:30;;;;;;;;;;;7.80;99.90;;;;;;5045316;28;20127;-93
2022/03/08 06:10:56;;;;;;;;;;;7.80;99.90;;;;;;5044725;28;19909;-93
2022/03/08 06:13:22;;;;;;;;;;;7.80;99.90;;;;;;5044883;28;19905;-92
2022/03/08 06:15:47;;;;;;;;;;;7.80;99.90;;;;;;5042081;28;19921;-91
2022/03/08 06:18:13;;;;;;;;;;;7.80;99.90;;;;;;5035444;28;19909;-92
2022/03/08 06:20:40;;;;;;;;;;;7.80;99.90;;;;;;5039917;28;19916;-94
2022/03/08 06:23:05;;;;;;;;;;;7.90;99.90;;;;;;5047795;28;19960;-91
2022/03/08 06:25:31;;;;;;;;;;;7.80;99.90;;;;;;5053460;28;19909;-92
2022/03/08 06:27:57;;;;;;;;;;;7.90;99.90;;;;;;5062691;28;19991;-91
2022/03/08 06:30:22;;;;;;;;;;;7.80;99.90;;;;;;5056691;28;20374;-92
2022/03/08 06:32:48;;;;;;;;;;;7.90;99.90;;;;;;5044706;28;20054;-90
2022/03/08 06:35:13;;;;;;;;;;;7.90;99.90;;;;;;5042950;28;20374;-91
2022/03/08 06:37:39;;;;;;;;;;;7.90;99.90;;;;;;5043327;28;20018;-91
2022/03/08 06:40:06;;;;;;;;;;;8.00;99.90;;;;;;5047667;28;20078;-91
2022/03/08 06:42:31;;;;;;;;;;;7.90;99.90;;;;;;5047066;28;19950;-92
2022/03/08 06:44:57;;;;;;;;;;;7.90;99.90;;;;;;5047060;28;19920;-91
2022/03/08 06:47:23;;;;;;;;;;;8.00;99.90;;;;;;5046884;28;19905;-90
2022/03/08 06:49:48;;;;;;;;;;;8.00;99.90;;;;;;5046571;28;19913;-91
2022/03/08 06:52:14;;;;;;;;;;;8.00;99.90;;;;;;5064425;28;19968;-91
2022/03/08 06:54:40;;;;;;;;;;;8.00;99.90;;;;;;5046351;28;19917;-91
2022/03/08 06:57:06;;;;;;;;;;;8.00;99.90;;;;;;5046329;28;19905;-90
2022/03/08 06:59:31;;;;;;;;;;;8.00;99.90;;;;;;5047307;28;19999;-90
2022/03/08 07:01:57;;;;;;;;;;;8.00;99.90;;;;;;5044190;28;19909;-92
2022/03/08 07:04:23;;;;;;;;;;;7.90;99.90;;;;;;5039007;28;19909;-92
2022/03/08 07:06:49;;;;;;;;;;;7.90;99.90;;;;;;5037539;28;19958;-91
2022/03/08 07:09:14;;;;;;;;;;;7.90;99.90;;;;;;5037731;28;19909;-92
2022/03/08 07:11:40;;;;;;;;;;;7.90;99.90;;;;;;5036263;28;19915;-92
2022/03/08 07:14:06;;;;;;;;;;;7.90;99.90;;;;;;5038352;28;19921;-91
2022/03/08 07:16:31;;;;;;;;;;;7.90;99.90;;;;;;5037778;28;20011;-92
2022/03/08 07:18:59;;;;;;;;;;;7.90;99.90;;;;;;5036092;28;20284;-91
2022/03/08 07:21:24;;;;;;;;;;;7.80;99.90;;;;;;5035597;28;19909;-91
2022/03/08 07:23:50;;;;;;;;;;;7.90;99.90;;;;;;5037436;28;19919;-91
2022/03/08 07:26:15;;;;;;;;;;;7.90;99.90;;;;;;5036737;28;20327;-91
2022/03/08 07:28:41;;;;;;;;;;;7.90;99.90;;;;;;5053184;28;19916;-92
2022/03/08 07:31:07;;;;;;;;;;;7.90;99.90;;;;;;5052337;28;19912;-92
2022/03/08 07:33:32;;;;;;;;;;;7.90;99.90;;;;;;5034202;28;20293;-91
2022/03/08 07:35:58;;;;;;;;;;;8.00;99.90;;;;;;5033949;28;19928;-91
2022/03/08 07:38:24;;;;;;;;;;;8.00;99.90;;;;;;5053126;28;20409;-92
2022/03/08 07:40:49;;;;;;;;;;;8.00;99.90;;;;;;5035813;28;19909;-91
2022/03/08 07:43:15;;;;;;;;;;;8.00;99.90;;;;;;5053677;28;19916;-90
2022/03/08 07:45:41;;;;;;;;;;;8.10;99.90;;;;;;5035643;28;19913;-91
2022/03/08 07:48:07;;;;;;;;;;;8.10;99.90;;;;;;5036962;28;20143;-91
2022/03/08 07:50:36;;;;;;;;;;;8.10;99.90;;;;;;5036100;28;20219;-91
2022/03/08 07:53:03;;;;;;;;;;;8.00;99.90;;;;;;5036027;28;19966;-93
2022/03/08 07:55:29;;;;;;;;;;;8.00;99.90;;;;;;5036586;28;19916;-91
2022/03/08 07:57:55;;;;;;;;;;;8.00;99.90;;;;;;5036374;28;19948;-91
2022/03/08 08:00:21;;;;;;;;;;;8.00;99.90;;;;;;5036658;28;19916;-92
2022/03/08 08:02:46;;;;;;;;;;;8.10;99.90;;;;;;5053219;28;19908;-91
2022/03/08 08:05:12;;;;;;;;;;;8.10;99.90;;;;;;5036321;28;19913;-91
2022/03/08 08:07:38;;;;;;;;;;;8.10;99.90;;;;;;5036102;28;19948;-91
2022/03/08 08:10:03;;;;;;;;;;;8.10;99.90;;;;;;5036279;28;19934;-91
2022/03/08 08:12:29;;;;;;;;;;;8.10;99.90;;;;;;5036883;28;19916;-91
2022/03/08 08:14:55;;;;;;;;;;;8.20;99.90;;;;;;5038180;28;19988;-91
2022/03/08 08:17:20;;;;;;;;;;;8.30;99.90;;;;;;5050164;28;19955;-91
2022/03/08 08:19:46;;;;;;;;;;;8.40;99.90;;;;;;5036900;28;19909;-91
2022/03/08 08:22:11;;;;;;;;;;;8.40;99.90;;;;;;5053856;28;19909;-92
2022/03/08 08:24:37;;;;;;;;;;;8.40;99.90;;;;;;5036160;28;19915;-91
2022/03/08 08:27:03;;;;;;;;;;;8.30;99.90;;;;;;5053822;28;19908;-91
2022/03/08 08:29:28;;;;;;;;;;;8.30;99.90;;;;;;5035033;28;20475;-91
2022/03/08 08:31:54;;;;;;;;;;;8.40;99.90;;;;;;5054120;28;19917;-91
2022/03/08 08:34:19;;;;;;;;;;;8.40;99.90;;;;;;5053430;28;19913;-90
2022/03/08 08:36:47;;;;;;;;;;;8.40;99.90;;;;;;5053630;28;19954;-93
2022/03/08 08:39:15;;;;;;;;;;;8.50;99.90;;;;;;5053665;28;20015;-91
2022/03/08 08:41:42;;;;;;;;;;;8.60;99.90;;;;;;5052575;28;20281;-91
2022/03/08 08:44:07;;;;;;;;;;;8.60;99.90;;;;;;5033841;28;20441;-91
2022/03/08 08:46:33;;;;;;;;;;;8.60;99.90;;;;;;5051693;28;20031;-91
2022/03/08 08:48:59;;;;;;;;;;;8.70;99.90;;;;;;5033819;28;19909;-91
2022/03/08 08:51:24;;;;;;;;;;;8.80;99.90;;;;;;5033705;28;20346;-91
2022/03/08 08:53:50;;;;;;;;;;;8.90;99.90;;;;;;5033797;28;19996;-91
2022/03/08 08:56:15;;;;;;;;;;;9.00;99.90;;;;;;5034221;28;20417;-91
2022/03/08 08:58:41;;;;;;;;;;;9.10;99.90;;;;;;5033671;28;19916;-91
2022/03/08 09:01:06;;;;;;;;;;;9.20;99.90;;;;;;5051761;28;19996;-91
2022/03/08 09:03:32;;;;;;;;;;;9.30;99.90;;;;;;5034202;28;19909;-92
2022/03/08 09:05:58;;;;;;;;;;;9.50;99.90;;;;;;5033934;28;19917;-92
2022/03/08 09:08:24;;;;;;;;;;;9.50;99.90;;;;;;5033732;28;19917;-92
2022/03/08 09:10:53;;;;;;;;;;;9.50;99.90;;;;;;5033912;28;19909;-92
2022/03/08 09:13:19;;;;;;;;;;;9.40;99.90;;;;;;5033726;28;20389;-91
2022/03/08 09:15:45;;;;;;;;;;;9.40;99.90;;;;;;5034007;28;19964;-91
2022/03/08 09:18:11;;;;;;;;;;;9.40;99.90;;;;;;5033700;28;20373;-92
2022/03/08 09:20:38;;;;;;;;;;;9.50;99.90;;;;;;5033272;28;19909;-91
2022/03/08 09:23:04;;;;;;;;;;;9.50;99.90;;;;;;5033422;28;20318;-91
2022/03/08 09:25:30;;;;;;;;;;;9.70;99.90;;;;;;5051161;28;19956;-92
2022/03/08 09:27:56;;;;;;;;;;;9.70;99.90;;;;;;5033030;28;19955;-91
2022/03/08 09:30:21;;;;;;;;;;;9.70;99.90;;;;;;5051145;28;20030;-92
2022/03/08 09:32:47;;;;;;;;;;;9.80;99.90;;;;;;5033380;28;19958;-92
2022/03/08 09:35:13;;;;;;;;;;;9.80;99.90;;;;;;5033266;28;19924;-92
2022/03/08 09:37:38;;;;;;;;;;;9.80;99.90;;;;;;5033138;28;19962;-92
2022/03/08 09:40:05;;;;;;;;;;;9.80;99.90;;;;;;5051196;28;19913;-92
2022/03/08 09:42:31;;;;;;;;;;;9.90;99.90;;;;;;5050832;28;19909;-93
2022/03/08 09:44:57;;;;;;;;;;;10.00;99.90;;;;;;5010483;28;19928;-91
2022/03/08 09:47:23;;;;;;;;;;;10.10;99.90;;;;;;5010221;28;19910;-91
2022/03/08 09:49:49;;;;;;;;;;;10.10;99.90;;;;;;5010106;28;19909;-91
2022/03/08 09:52:15;;;;;;;;;;;10.00;99.90;;;;;;5010143;28;19920;-92
2022/03/08 09:54:43;;;;;;;;;;;9.90;99.90;;;;;;5010536;28;19917;-91
2022/03/08 09:57:10;;;;;;;;;;;9.90;99.90;;;;;;5015523;28;19910;-92
2022/03/08 09:59:37;;;;;;;;;;;10.00;99.90;;;;;;5014008;28;19909;-90
2022/03/08 10:02:02;;;;;;;;;;;10.20;99.90;;;;;;5015297;28;19916;-92
2022/03/08 10:04:28;;;;;;;;;;;10.20;99.90;;;;;;5013913;28;20294;-93
2022/03/08 10:06:53;;;;;;;;;;;10.20;99.90;;;;;;5017842;28;19933;-92
2022/03/08 10:09:20;;;;;;;;;;;10.20;99.90;;;;;;5030093;28;19925;-92
2022/03/08 10:11:53;;;;;;;;;;;10.20;99.90;;;;;;5014543;28;19909;-92
2022/03/08 10:14:39;;;;;;;;;;;10.20;99.90;;;;;;5014564;28;19913;-91
2022/03/08 10:17:08;;;;;;;;;;;10.20;99.90;;;;;;5014018;28;19917;-92
2022/03/08 10:19:47;;;;;;;;;;;10.40;99.90;;;;;;5013632;28;19909;-92
2022/03/08 10:22:32;;;;;;;;;;;10.50;99.90;;;;;;5013634;28;19910;-92
2022/03/08 10:25:10;;;;;;;;;;;10.80;99.90;;;;;;5013621;28;19916;-92
2022/03/08 10:27:36;;;;;;;;;;;11.00;99.90;;;;;;5012904;28;19909;-91
2022/03/08 10:30:01;;;;;;;;;;;11.10;99.90;;;;;;5013097;28;19909;-92
2022/03/08 10:32:35;;;;;;;;;;;11.10;99.90;;;;;;5013594;28;19948;-91
2022/03/08 10:35:01;;;;;;;;;;;11.20;99.90;;;;;;5013481;28;19918;-91
2022/03/08 10:37:33;;;;;;;;;;;11.30;99.90;;;;;;5013187;28;19910;-91
2022/03/08 10:40:05;;;;;;;;;;;11.10;99.90;;;;;;5013552;28;19909;-91
2022/03/08 10:42:32;;;;;;;;;;;11.20;99.90;;;;;;5013372;28;19909;-91
2022/03/08 10:45:02;;;;;;;;;;;11.30;99.90;;;;;;5053035;28;19957;-92
2022/03/08 10:47:36;;;;;;;;;;;11.20;99.90;;;;;;5036389;28;19966;-92
2022/03/08 10:50:03;;;;;;;;;;;11.40;99.90;;;;;;5057543;28;19913;-91
2022/03/08 10:52:33;;;;;;;;;;;11.40;99.90;;;;;;5038140;28;19999;-93
2022/03/08 10:55:27;;;;;;;;;;;11.50;99.90;;;;;;5055778;28;19925;-91
2022/03/08 10:57:57;;;;;;;;;;;11.50;99.90;;;;;;5039538;28;19916;-92
2022/03/08 11:00:42;;;;;;;;;;;11.50;99.90;;;;;;5054988;28;20006;-91
2022/03/08 11:03:09;;;;;;;;;;;11.40;99.90;;;;;;5050670;28;19909;-92
2022/03/08 11:05:39;;;;;;;;;;;11.50;99.90;;;;;;5019190;28;20022;-91
2022/03/08 11:08:06;;;;;;;;;;;11.60;99.90;;;;;;5035115;28;20031;-92
2022/03/08 11:10:32;;;;;;;;;;;11.60;99.90;;;;;;5035940;28;19909;-92
2022/03/08 11:12:58;;;;;;;;;;;11.60;99.90;;;;;;5035741;28;19909;-93
2022/03/08 11:15:24;;;;;;;;;;;11.70;99.90;;;;;;5035726;28;19917;-93
2022/03/08 11:17:52;;;;;;;;;;;11.80;99.90;;;;;;5035955;28;19988;-92
2022/03/08 11:20:19;;;;;;;;;;;11.70;99.90;;;;;;5035980;28;19908;-92
2022/03/08 11:22:47;;;;;;;;;;;11.70;99.90;;;;;;5036085;28;19931;-93
2022/03/08 11:25:16;;;;;;;;;;;11.60;99.90;;;;;;5036703;28;19917;-92
2022/03/08 11:27:43;;;;;;;;;;;11.60;99.90;;;;;;5035934;28;19968;-92
2022/03/08 11:30:11;;;;;;;;;;;11.60;99.90;;;;;;5053349;28;19918;-92
2022/03/08 11:32:36;;;;;;;;;;;11.50;99.90;;;;;;5035460;28;19909;-92
2022/03/08 11:35:10;;;;;;;;;;;11.40;99.90;;;;;;5035356;28;19917;-92
2022/03/08 11:37:37;;;;;;;;;;;11.30;99.90;;;;;;5053285;28;19909;-91
2022/03/08 11:40:07;;;;;;;;;;;11.30;99.90;;;;;;5035601;28;19913;-91
2022/03/08 11:42:34;;;;;;;;;;;11.30;99.90;;;;;;5035277;28;19915;-91
2022/03/08 11:45:09;;;;;;;;;;;11.30;99.90;;;;;;5012037;28;19968;-91
2022/03/08 11:47:41;;;;;;;;;;;11.30;99.90;;;;;;5012104;28;19914;-92
2022/03/08 11:50:17;;;;;;;;;;;11.40;99.90;;;;;;5014732;28;19916;-92
2022/03/08 11:52:42;;;;;;;;;;;11.60;99.90;;;;;;5012644;28;20342;-91
2022/03/08 11:55:12;;;;;;;;;;;11.80;99.90;;;;;;5011302;28;19933;-92
2022/03/08 11:57:47;;;;;;;;;;;11.70;99.90;;;;;;5011681;28;19961;-92
2022/03/08 12:00:27;;;;;;;;;;;11.80;99.90;;;;;;5028548;28;19910;-92
2022/03/08 12:02:54;;;;;;;;;;;11.90;99.90;;;;;;5009246;28;19909;-92
2022/03/08 12:05:38;;;;;;;;;;;11.90;99.90;;;;;;5006915;28;20129;-92
2022/03/08 12:08:26;;;;;;;;;;;12.10;99.90;;;;;;5012629;28;19910;-92
2022/03/08 12:10:57;;;;;;;;;;;12.10;99.90;;;;;;5011557;28;20344;-92
2022/03/08 12:13:26;;;;;;;;;;;11.90;99.90;;;;;;5011420;28;19910;-92
2022/03/08 12:16:08;;;;;;;;;;;12.00;99.90;;;;;;5011713;28;19917;-92
2022/03/08 12:18:38;;;;;;;;;;;12.00;99.90;;;;;;5011377;28;20394;-92
2022/03/08 12:21:16;;;;;;;;;;;12.00;99.90;;;;;;5013100;28;19917;-93
2022/03/08 12:24:02;;;;;;;;;;;12.00;99.90;;;;;;5011686;28;20290;-93
2022/03/08 12:26:36;;;;;;;;;;;11.90;99.90;;;;;;5011116;28;19916;-93
2022/03/08 12:29:13;;;;;;;;;;;11.80;99.90;;;;;;5010961;28;19940;-94
2022/03/08 12:31:57;;;;;;;;;;;11.70;99.90;;;;;;5011543;28;20440;-93
2022/03/08 12:34:50;;;;;;;;;;;11.60;99.90;;;;;;5007245;28;20181;-93
2022/03/08 12:37:17;;;;;;;;;;;11.60;99.90;;;;;;4993446;28;19956;-93
2022/03/08 12:39:56;;;;;;;;;;;11.50;99.90;;;;;;5010684;28;19946;-93
2022/03/08 12:42:26;;;;;;;;;;;11.30;99.90;;;;;;5011051;28;19910;-92
2022/03/08 12:44:53;;;;;;;;;;;11.20;99.90;;;;;;5029374;28;19921;-92
2022/03/08 12:47:18;;;;;;;;;;;11.10;99.90;;;;;;5024087;28;19909;-93
2022/03/08 12:49:46;;;;;;;;;;;11.10;99.90;;;;;;5012614;28;19955;-93
2022/03/08 12:52:12;;;;;;;;;;;11.00;99.90;;;;;;5021519;28;19954;-93
2022/03/08 12:54:39;;;;;;;;;;;10.90;99.90;;;;;;5040951;28;19917;-93
2022/03/08 12:57:05;;;;;;;;;;;10.80;99.90;;;;;;5011763;28;19909;-93
2022/03/08 12:59:52;;;;;;;;;;;10.80;99.90;;;;;;5048269;27;2076693;-92
2022/03/08 13:02:18;;;;;;;;;;;10.90;99.90;;;;;;5110164;28;19919;-92
2022/03/08 13:04:45;;;;;;;;;;;11.00;99.90;;;;;;5106975;28;20380;-92
2022/03/08 13:07:12;;;;;;;;;;;11.00;99.90;;;;;;5104113;28;19940;-92
2022/03/08 13:09:53;;;;;;;;;;;11.10;99.90;;;;;;5106508;28;19908;-92
2022/03/08 13:12:20;;;;;;;;;;;11.00;99.90;;;;;;5094884;28;19953;-92
2022/03/08 13:15:24;;;;;;;;;;;11.10;99.90;;;;;;5108027;28;19911;-93
2022/03/08 13:17:53;;;;;;;;;;;11.10;99.90;;;;;;5009741;28;19917;-92
2022/03/08 13:20:29;;;;;;;;;;;11.10;99.90;;;;;;5013539;28;19910;-93
2022/03/08 13:22:55;;;;;;;;;;;11.00;99.90;;;;;;5074288;28;19948;-91
2022/03/08 13:25:21;;;;;;;;;;;11.10;99.90;;;;;;5098593;28;19998;-91
2022/03/08 13:27:49;;;;;;;;;;;11.10;99.90;;;;;;5092979;28;20403;-92
2022/03/08 13:30:19;;;;;;;;;;;11.20;99.90;;;;;;5110811;28;20379;-91
2022/03/08 13:32:45;;;;;;;;;;;11.30;99.90;;;;;;5104104;28;19908;-92
2022/03/08 13:35:10;;;;;;;;;;;11.40;99.90;;;;;;5104160;28;19907;-93
2022/03/08 13:37:49;;;;;;;;;;;11.40;99.90;;;;;;5104448;28;19920;-93
2022/03/08 13:40:28;;;;;;;;;;;11.40;99.90;;;;;;5111168;28;19912;-92
2022/03/08 13:42:57;;;;;;;;;;;11.30;99.90;;;;;;5110742;28;19951;-92
2022/03/08 13:45:23;;;;;;;;;;;11.40;99.90;;;;;;5129024;28;19954;-92
2022/03/08 13:47:54;;;;;;;;;;;11.50;99.90;;;;;;5110569;28;19921;-92
2022/03/08 13:50:21;;;;;;;;;;;11.50;99.90;;;;;;5101364;28;19915;-92
2022/03/08 13:52:54;;;;;;;;;;;11.40;99.90;;;;;;5122066;28;19908;-92
2022/03/08 13:55:25;;;;;;;;;;;11.20;99.90;;;;;;5115842;28;20400;-92
2022/03/08 13:57:58;;;;;;;;;;;11.20;99.90;;;;;;5090862;28;19965;-91
2022/03/08 14:00:27;;;;;;;;;;;11.10;99.90;;;;;;5084125;28;19915;-92
2022/03/08 14:02:55;;;;;;;;;;;11.30;99.90;;;;;;5090774;28;20007;-93
2022/03/08 14:05:20;;;;;;;;;;;11.20;99.90;;;;;;5090780;28;20312;-92
2022/03/08 14:07:56;;;;;;;;;;;11.20;99.90;;;;;;5097027;28;20029;-92
2022/03/08 14:10:23;;;;;;;;;;;11.20;99.90;;;;;;5076039;28;19912;-92
2022/03/08 14:12:48;;;;;;;;;;;11.10;99.90;;;;;;5090224;28;19918;-92
2022/03/08 14:15:14;;;;;;;;;;;11.00;99.90;;;;;;5089948;28;19991;-92
2022/03/08 14:17:40;;;;;;;;;;;10.90;99.90;;;;;;5070350;28;19912;-92
2022/03/08 14:20:32;;;;;;;;;;;10.80;99.90;;;;;;5094915;28;20373;-92
2022/03/08 14:23:10;;;;;;;;;;;10.70;99.90;;;;;;5087152;28;20380;-90
2022/03/08 14:25:55;;;;;;;;;;;10.70;99.90;;;;;;5095940;28;19953;-90
2022/03/08 14:28:20;;;;;;;;;;;10.80;99.90;;;;;;5068970;28;20392;-90